Leyla Kalkavan — V7JG9 — position and weather

sailwx.info

Track history (hours):
 
Tides and Currents Weather Stations Pressure Air Temp Water Temp Dewpoint Dewpoint Depression Visibility Wind Speed Wind Dir Waves Ship Positions

Leyla Kalkavan

Last reported at 2018-Feb-20 12:24 UTC. Time now 2018-Feb-23 04:21 UTC.
Position N 39°27' W 009°57'.

Type: Tanker. MMSI: 538007390.

Date/timePositionNaut miles runAvg speedWind from/ knotsBaromVisibWave heightAir tempDewpointWater temp
2018-Feb-20 12:24N 39°27' W 009°57'411.2
2018-Feb-20 12:00N 39°22' W 009°57'611.4
2018-Feb-20 11:30N 39°17' W 009°57'611.3
2018-Feb-20 11:00N 39°11' W 009°57'611.1
2018-Feb-20 10:30N 39°05' W 009°57'611.2
2018-Feb-20 10:00N 38°60' W 009°57'611.2
2018-Feb-20 09:30N 38°54' W 009°57'611.2
2018-Feb-20 09:00N 38°49' W 009°57'611.2
2018-Feb-20 08:30N 38°43' W 009°57'611.1
2018-Feb-20 08:00N 38°38' W 009°56'611.3
2018-Feb-20 07:30N 38°32' W 009°54'611.1
2018-Feb-20 07:00N 38°27' W 009°52'511.0
2018-Feb-20 06:31N 38°21' W 009°51'611.0
2018-Feb-20 06:00N 38°16' W 009°49'611.4
2018-Feb-20 05:30N 38°10' W 009°47'611.7
2018-Feb-20 05:00N 38°05' W 009°46'611.3
2018-Feb-20 04:30N 37°59' W 009°44'611.3
2018-Feb-20 04:00N 37°54' W 009°42'611.3
2018-Feb-20 03:30N 37°48' W 009°41'611.5
2018-Feb-20 03:00N 37°43' W 009°39'611.3
2018-Feb-20 02:30N 37°37' W 009°38'611.3
2018-Feb-20 01:56N 37°31' W 009°36'511.2
2018-Feb-20 01:30N 37°26' W 009°34'9710.5
2018-Feb-19 16:16N 36°21' W 008°05'  
Track history (hours):
 
Tides and Currents Weather Stations Pressure Air Temp Water Temp Dewpoint Dewpoint Depression Visibility Wind Speed Wind Dir Waves Ship Positions

Leyla Kalkavan

Last reported at 2018-Feb-20 12:24 UTC. Time now 2018-Feb-23 04:21 UTC.
Position N 39°27' W 009°57'.

Type: Tanker. MMSI: 538007390.

Date/timePositionNaut miles runAvg speedWind from/ knotsBaromVisibWave heightAir tempDewpointWater temp
2018-Feb-20 12:24N 39°27' W 009°57'411.2
2018-Feb-20 12:00N 39°22' W 009°57'611.4
2018-Feb-20 11:30N 39°17' W 009°57'611.3
2018-Feb-20 11:00N 39°11' W 009°57'611.1
2018-Feb-20 10:30N 39°05' W 009°57'611.2
2018-Feb-20 10:00N 38°60' W 009°57'611.2
2018-Feb-20 09:30N 38°54' W 009°57'611.2
2018-Feb-20 09:00N 38°49' W 009°57'611.2
2018-Feb-20 08:30N 38°43' W 009°57'611.1
2018-Feb-20 08:00N 38°38' W 009°56'611.3
2018-Feb-20 07:30N 38°32' W 009°54'611.1
2018-Feb-20 07:00N 38°27' W 009°52'511.0
2018-Feb-20 06:31N 38°21' W 009°51'611.0
2018-Feb-20 06:00N 38°16' W 009°49'611.4
2018-Feb-20 05:30N 38°10' W 009°47'611.7
2018-Feb-20 05:00N 38°05' W 009°46'611.3
2018-Feb-20 04:30N 37°59' W 009°44'611.3
2018-Feb-20 04:00N 37°54' W 009°42'611.3
2018-Feb-20 03:30N 37°48' W 009°41'611.5
2018-Feb-20 03:00N 37°43' W 009°39'611.3
2018-Feb-20 02:30N 37°37' W 009°38'611.3
2018-Feb-20 01:56N 37°31' W 009°36'511.2
2018-Feb-20 01:30N 37°26' W 009°34'9710.5
2018-Feb-19 16:16N 36°21' W 008°05'  

Dump ship's entire track history